createdAt,value
2022-10-18T00:00:34.360Z,17.68
2022-10-18T00:01:36.829Z,17.68
2022-10-18T00:02:38.395Z,17.67
2022-10-18T00:04:47.733Z,17.66
2022-10-18T00:05:51.564Z,17.65
2022-10-18T00:06:53.097Z,17.66
2022-10-18T00:07:55.563Z,17.67
2022-10-18T00:08:58.463Z,17.67
2022-10-18T00:10:00.964Z,17.67
2022-10-18T00:11:02.589Z,17.67
2022-10-18T00:12:05.337Z,17.67
2022-10-18T00:13:06.947Z,17.67
2022-10-18T00:14:09.608Z,17.67
2022-10-18T00:15:12.012Z,17.68
2022-10-18T00:16:16.730Z,17.68
2022-10-18T00:17:18.274Z,17.68
2022-10-18T00:18:20.928Z,17.68
2022-10-18T00:19:25.905Z,17.68
2022-10-18T00:20:31.341Z,17.67
2022-10-18T00:21:33.113Z,17.69
2022-10-18T00:22:36.526Z,17.69
2022-10-18T00:23:38.442Z,17.69
2022-10-18T00:24:42.299Z,17.69
2022-10-18T00:25:43.843Z,17.69
2022-10-18T00:26:46.401Z,17.69
2022-10-18T00:27:48.172Z,17.69
2022-10-18T00:28:53.637Z,17.70
2022-10-18T00:29:55.245Z,17.69
2022-10-18T00:30:58.193Z,17.71
2022-10-18T00:32:00.057Z,17.68
2022-10-18T00:33:02.559Z,17.71
2022-10-18T00:34:07.054Z,17.70
2022-10-18T00:35:10.510Z,17.71
2022-10-18T00:36:13.327Z,17.70
2022-10-18T00:37:16.114Z,17.70
2022-10-18T00:38:17.719Z,17.71
2022-10-18T00:39:21.961Z,17.69
2022-10-18T00:40:24.872Z,17.70
2022-10-18T00:41:29.760Z,17.69
2022-10-18T00:42:34.472Z,17.69
2022-10-18T00:43:52.858Z,17.68
2022-10-18T00:45:12.553Z,17.68
2022-10-18T00:46:15.015Z,17.67
2022-10-18T00:47:18.212Z,17.67
2022-10-18T00:48:21.793Z,17.67
2022-10-18T00:49:27.735Z,17.67
2022-10-18T00:50:34.970Z,17.67
2022-10-18T00:51:41.970Z,17.67
2022-10-18T00:52:47.833Z,17.67
2022-10-18T00:53:49.624Z,17.65
2022-10-18T00:54:53.872Z,17.66
2022-10-18T00:55:57.502Z,17.66
2022-10-18T00:57:00.425Z,17.65
2022-10-18T00:58:03.417Z,17.67
2022-10-18T00:59:05.983Z,17.66
2022-10-18T01:00:09.923Z,17.67
2022-10-18T01:01:17.794Z,17.67
2022-10-18T01:02:19.679Z,17.67
2022-10-18T01:03:22.212Z,17.67
2022-10-18T01:04:23.935Z,17.67
2022-10-18T01:05:27.052Z,17.67
2022-10-18T01:06:29.034Z,17.66
2022-10-18T01:08:03.631Z,17.67
2022-10-18T01:09:15.058Z,17.66
2022-10-18T01:10:26.681Z,17.65
2022-10-18T01:11:43.649Z,17.64
2022-10-18T01:13:05.745Z,17.63
2022-10-18T01:14:19.582Z,17.63
2022-10-18T01:15:27.740Z,17.63
2022-10-18T01:16:37.411Z,17.64
2022-10-18T01:17:48.085Z,17.64
2022-10-18T01:18:55.851Z,17.64
2022-10-18T01:20:23.197Z,17.65
2022-10-18T01:21:38.247Z,17.64
2022-10-18T01:22:44.532Z,17.64
2022-10-18T01:24:26.731Z,17.63
2022-10-18T01:25:40.656Z,17.62
2022-10-18T01:27:11.137Z,17.61
2022-10-18T01:28:29.166Z,17.60
2022-10-18T01:29:46.161Z,17.60
2022-10-18T01:30:58.014Z,17.59
2022-10-18T01:32:02.506Z,17.59
2022-10-18T01:33:10.241Z,17.59
2022-10-18T01:34:16.458Z,17.59
2022-10-18T01:35:23.940Z,17.59
2022-10-18T01:36:32.491Z,17.60
2022-10-18T01:37:35.946Z,17.61
2022-10-18T01:38:40.520Z,17.61
2022-10-18T01:39:45.628Z,17.60
2022-10-18T01:40:51.332Z,17.59
2022-10-18T01:41:54.588Z,17.60
2022-10-18T01:42:57.235Z,17.60
2022-10-18T01:44:01.892Z,17.60
2022-10-18T01:45:05.337Z,17.60
2022-10-18T01:46:09.339Z,17.61
2022-10-18T01:47:13.353Z,17.61
2022-10-18T01:48:16.378Z,17.61
2022-10-18T01:49:18.876Z,17.60
2022-10-18T01:50:29.127Z,17.61
2022-10-18T01:51:33.440Z,17.62
2022-10-18T01:52:35.048Z,17.63
2022-10-18T01:53:37.517Z,17.64
2022-10-18T01:54:42.897Z,17.64
2022-10-18T01:55:53.915Z,17.64
2022-10-18T01:56:59.686Z,17.64
2022-10-18T01:58:09.361Z,17.64
2022-10-18T01:59:25.110Z,17.64
2022-10-18T02:00:36.202Z,17.65
2022-10-18T02:01:51.804Z,17.64
2022-10-18T02:02:59.188Z,17.63
2022-10-18T02:04:12.444Z,17.63
2022-10-18T02:05:23.724Z,17.63
2022-10-18T02:06:32.147Z,17.62
2022-10-18T02:07:38.205Z,17.61
2022-10-18T02:08:46.533Z,17.62
2022-10-18T02:09:57.331Z,17.61
2022-10-18T02:11:02.861Z,17.60
2022-10-18T02:12:07.204Z,17.59
2022-10-18T02:13:11.238Z,17.60
2022-10-18T02:14:17.015Z,17.59
2022-10-18T02:15:23.436Z,17.59
2022-10-18T02:16:30.932Z,17.60
2022-10-18T02:17:33.940Z,17.59
2022-10-18T02:18:41.168Z,17.58
2022-10-18T02:19:46.170Z,17.57
2022-10-18T02:20:50.214Z,17.57
2022-10-18T02:21:54.869Z,17.57
2022-10-18T02:22:58.283Z,17.56
2022-10-18T02:24:02.391Z,17.56
2022-10-18T02:25:10.639Z,17.56
2022-10-18T02:26:12.942Z,17.56
2022-10-18T02:27:15.615Z,17.57
2022-10-18T02:28:17.365Z,17.57
2022-10-18T02:29:22.759Z,17.58
2022-10-18T02:30:30.329Z,17.59
2022-10-18T02:31:36.990Z,17.58
2022-10-18T02:32:44.724Z,17.59
2022-10-18T02:33:54.191Z,17.57
2022-10-18T02:35:00.651Z,17.57
2022-10-18T02:36:08.813Z,17.56
2022-10-18T02:37:11.785Z,17.55
2022-10-18T02:38:18.287Z,17.55
2022-10-18T02:39:23.024Z,17.53
2022-10-18T02:40:26.550Z,17.53
2022-10-18T02:41:30.472Z,17.52
2022-10-18T02:42:37.318Z,17.52
2022-10-18T02:43:38.896Z,17.51
2022-10-18T02:44:41.437Z,17.51
2022-10-18T02:45:43.070Z,17.51
2022-10-18T02:46:46.324Z,17.51
2022-10-18T02:47:49.250Z,17.50
2022-10-18T02:48:52.021Z,17.48
2022-10-18T02:49:53.750Z,17.49
2022-10-18T02:50:56.248Z,17.48
2022-10-18T02:51:57.884Z,17.47
2022-10-18T02:53:00.447Z,17.48
2022-10-18T02:54:01.990Z,17.48
2022-10-18T02:55:05.743Z,17.46
2022-10-18T02:56:07.795Z,17.46
2022-10-18T02:57:10.318Z,17.46
2022-10-18T02:58:11.870Z,17.45
2022-10-18T02:59:14.967Z,17.45
2022-10-18T03:00:16.775Z,17.45
2022-10-18T03:01:19.306Z,17.45
2022-10-18T03:02:20.865Z,17.44
2022-10-18T03:03:24.990Z,17.44
2022-10-18T03:05:34.004Z,17.45
2022-10-18T03:06:36.286Z,17.45
2022-10-18T03:07:38.804Z,17.44
2022-10-18T03:08:40.304Z,17.44
2022-10-18T03:09:42.801Z,17.43
2022-10-18T03:10:45.088Z,17.44
2022-10-18T03:11:47.591Z,17.43
2022-10-18T03:12:49.117Z,17.42
2022-10-18T03:13:51.696Z,17.42
2022-10-18T03:14:53.591Z,17.42
2022-10-18T03:15:56.271Z,17.42
2022-10-18T03:16:58.792Z,17.42
2022-10-18T03:18:00.373Z,17.42
2022-10-18T03:19:04.242Z,17.42
2022-10-18T03:20:06.747Z,17.42
2022-10-18T03:21:09.759Z,17.42
2022-10-18T03:22:11.309Z,17.43
2022-10-18T03:23:13.851Z,17.42
2022-10-18T03:24:15.804Z,17.43
2022-10-18T03:25:18.444Z,17.43
2022-10-18T03:26:21.441Z,17.42
2022-10-18T03:27:23.983Z,17.43
2022-10-18T03:28:25.643Z,17.44
2022-10-18T03:29:28.804Z,17.43
2022-10-18T03:30:30.588Z,17.43
2022-10-18T03:31:33.657Z,17.43
2022-10-18T03:32:35.642Z,17.42
2022-10-18T03:33:38.204Z,17.42
2022-10-18T03:34:41.164Z,17.42
2022-10-18T03:35:43.661Z,17.42
2022-10-18T03:36:46.246Z,17.42
2022-10-18T03:37:47.797Z,17.41
2022-10-18T03:38:50.253Z,17.41
2022-10-18T03:39:51.745Z,17.41
2022-10-18T03:40:54.288Z,17.42
2022-10-18T03:41:55.854Z,17.42
2022-10-18T03:42:58.371Z,17.42
2022-10-18T03:43:59.885Z,17.42
2022-10-18T03:45:02.553Z,17.42
2022-10-18T03:46:04.209Z,17.42
2022-10-18T03:47:10.510Z,17.42
2022-10-18T03:48:12.205Z,17.40
2022-10-18T03:49:14.855Z,17.40
2022-10-18T03:50:17.936Z,17.39
2022-10-18T03:51:20.469Z,17.39
2022-10-18T03:52:21.988Z,17.37
2022-10-18T03:53:24.513Z,17.37
2022-10-18T03:54:26.095Z,17.37
2022-10-18T03:55:28.615Z,17.37
2022-10-18T03:56:30.184Z,17.37
2022-10-18T03:57:32.732Z,17.37
2022-10-18T03:59:41.769Z,17.37
2022-10-18T04:00:43.407Z,17.36
2022-10-18T04:01:46.040Z,17.35
2022-10-18T04:02:50.793Z,17.36
2022-10-18T04:03:55.924Z,17.36
2022-10-18T04:04:58.696Z,17.36
2022-10-18T04:06:03.558Z,17.36
2022-10-18T04:07:05.112Z,17.36
2022-10-18T04:08:07.602Z,17.35
2022-10-18T04:09:10.415Z,17.35
2022-10-18T04:10:13.100Z,17.35
2022-10-18T04:11:15.097Z,17.35
2022-10-18T04:12:17.575Z,17.37
2022-10-18T04:13:19.173Z,17.35
2022-10-18T04:14:22.004Z,17.37
2022-10-18T04:15:23.585Z,17.37
2022-10-18T04:16:26.243Z,17.37
2022-10-18T04:17:27.857Z,17.37
2022-10-18T04:18:30.429Z,17.37
2022-10-18T04:19:31.945Z,17.37
2022-10-18T04:20:34.518Z,17.37
2022-10-18T04:21:37.419Z,17.38
2022-10-18T04:22:40.148Z,17.38
2022-10-18T04:23:41.733Z,17.38
2022-10-18T04:24:44.262Z,17.39
2022-10-18T04:25:45.824Z,17.37
2022-10-18T04:26:48.393Z,17.38
2022-10-18T04:27:49.952Z,17.37
2022-10-18T04:28:52.501Z,17.37
2022-10-18T04:29:54.066Z,17.36
2022-10-18T04:30:56.528Z,17.36
2022-10-18T04:31:58.068Z,17.36
2022-10-18T04:33:00.639Z,17.35
2022-10-18T04:34:02.726Z,17.36
2022-10-18T04:35:06.790Z,17.35
2022-10-18T04:36:08.517Z,17.35
2022-10-18T04:37:12.372Z,17.35
2022-10-18T04:38:14.690Z,17.36
2022-10-18T04:39:17.419Z,17.35
2022-10-18T04:40:19.894Z,17.35
2022-10-18T04:41:22.434Z,17.35
2022-10-18T04:42:24.481Z,17.34
2022-10-18T04:43:26.987Z,17.35
2022-10-18T04:44:31.256Z,17.35
2022-10-18T04:45:33.743Z,17.35
2022-10-18T04:46:35.369Z,17.34
2022-10-18T04:47:37.895Z,17.35
2022-10-18T04:48:39.484Z,17.35
2022-10-18T04:49:42.050Z,17.35
2022-10-18T04:50:43.716Z,17.34
2022-10-18T04:51:46.259Z,17.33
2022-10-18T04:53:52.555Z,17.34
2022-10-18T04:54:54.063Z,17.34
2022-10-18T04:55:56.573Z,17.34
2022-10-18T04:56:58.307Z,17.34
2022-10-18T04:58:00.894Z,17.35
2022-10-18T04:59:02.699Z,17.34
2022-10-18T05:00:06.460Z,17.34
2022-10-18T05:01:10.779Z,17.36
2022-10-18T05:02:12.422Z,17.34
2022-10-18T05:03:15.115Z,17.35
2022-10-18T05:04:16.701Z,17.33
2022-10-18T05:05:19.263Z,17.33
2022-10-18T05:06:21.586Z,17.32
2022-10-18T05:07:24.090Z,17.32
2022-10-18T05:08:27.132Z,17.32
2022-10-18T05:09:30.100Z,17.32
2022-10-18T05:10:31.768Z,17.30
2022-10-18T05:11:34.300Z,17.32
2022-10-18T05:12:36.029Z,17.30
2022-10-18T05:13:38.917Z,17.29
2022-10-18T05:14:40.521Z,17.29
2022-10-18T05:15:43.013Z,17.28
2022-10-18T05:16:44.627Z,17.28
2022-10-18T05:17:48.011Z,17.26
2022-10-18T05:18:50.061Z,17.27
2022-10-18T05:19:52.669Z,17.26
2022-10-18T05:20:54.207Z,17.28
2022-10-18T05:21:57.129Z,17.26
2022-10-18T05:22:59.194Z,17.26
2022-10-18T05:24:03.266Z,17.27
2022-10-18T05:25:06.947Z,17.26
2022-10-18T05:26:09.893Z,17.25
2022-10-18T05:27:11.610Z,17.26
2022-10-18T05:28:38.641Z,17.26
2022-10-18T05:29:37.153Z,17.24
2022-10-18T05:30:39.177Z,17.24
2022-10-18T05:31:41.815Z,17.24
2022-10-18T05:32:43.549Z,17.23
2022-10-18T05:33:46.131Z,17.23
2022-10-18T05:34:47.659Z,17.23
2022-10-18T05:35:50.121Z,17.21
2022-10-18T05:36:51.852Z,17.21
2022-10-18T05:37:54.489Z,17.20
2022-10-18T05:38:58.638Z,17.21
2022-10-18T05:40:05.847Z,17.20
2022-10-18T05:41:07.598Z,17.21
2022-10-18T05:42:10.151Z,17.19
2022-10-18T05:43:11.713Z,17.21
2022-10-18T05:44:14.232Z,17.19
2022-10-18T05:45:15.970Z,17.19
2022-10-18T05:46:18.529Z,17.18
2022-10-18T05:47:20.097Z,17.18
2022-10-18T05:48:22.659Z,17.17
2022-10-18T05:49:25.205Z,17.18
2022-10-18T05:50:26.930Z,17.18
2022-10-18T05:51:29.591Z,17.18
2022-10-18T05:52:31.458Z,17.19
2022-10-18T05:53:38.276Z,17.18
2022-10-18T05:54:40.632Z,17.18
2022-10-18T05:55:44.509Z,17.19
2022-10-18T05:56:47.031Z,17.18
2022-10-18T05:57:49.542Z,17.18
2022-10-18T05:58:52.648Z,17.18
2022-10-18T05:59:54.233Z,17.18
2022-10-18T06:01:01.010Z,17.17
2022-10-18T06:02:02.793Z,17.18
2022-10-18T06:03:05.577Z,17.18
2022-10-18T06:04:07.978Z,17.17
2022-10-18T06:05:10.795Z,17.17
2022-10-18T06:06:13.587Z,17.18
2022-10-18T06:07:17.266Z,17.18
2022-10-18T06:08:19.076Z,17.19
2022-10-18T06:09:22.301Z,17.18
2022-10-18T06:10:23.908Z,17.19
2022-10-18T06:11:27.943Z,17.21
2022-10-18T06:12:29.690Z,17.21
2022-10-18T06:13:33.707Z,17.19
2022-10-18T06:14:36.036Z,17.19
2022-10-18T06:15:38.522Z,17.19
2022-10-18T06:16:40.067Z,17.19
2022-10-18T06:17:42.543Z,17.18
2022-10-18T06:18:47.680Z,17.19
2022-10-18T06:19:50.144Z,17.19
2022-10-18T06:20:56.730Z,17.19
2022-10-18T06:21:59.373Z,17.18
2022-10-18T06:23:00.907Z,17.17
2022-10-18T06:24:03.430Z,17.17
2022-10-18T06:25:06.877Z,17.18
2022-10-18T06:26:12.189Z,17.18
2022-10-18T06:27:15.068Z,17.17
2022-10-18T06:28:18.112Z,17.16
2022-10-18T06:29:19.625Z,17.16
2022-10-18T06:30:22.297Z,17.18
2022-10-18T06:31:23.812Z,17.18
2022-10-18T06:32:26.370Z,17.17
2022-10-18T06:33:27.903Z,17.18
2022-10-18T06:34:30.712Z,17.18
2022-10-18T06:35:32.293Z,17.18
2022-10-18T06:36:34.963Z,17.18
2022-10-18T06:37:38.044Z,17.18
2022-10-18T06:38:40.832Z,17.18
2022-10-18T06:39:42.411Z,17.19
2022-10-18T06:40:44.890Z,17.19
2022-10-18T06:41:47.420Z,17.19
2022-10-18T06:43:00.040Z,17.20
2022-10-18T06:44:13.691Z,17.19
2022-10-18T06:45:15.908Z,17.20
2022-10-18T06:46:18.412Z,17.19
2022-10-18T06:47:19.975Z,17.19
2022-10-18T06:48:23.064Z,17.20
2022-10-18T06:49:25.631Z,17.19
2022-10-18T06:50:27.226Z,17.20
2022-10-18T06:51:29.727Z,17.21
2022-10-18T06:52:31.614Z,17.22
2022-10-18T06:53:43.701Z,17.22
2022-10-18T06:54:50.330Z,17.22
2022-10-18T06:55:53.090Z,17.22
2022-10-18T06:56:57.441Z,17.22
2022-10-18T06:58:00.410Z,17.25
2022-10-18T06:59:03.222Z,17.25
2022-10-18T07:00:06.305Z,17.26
2022-10-18T07:01:13.370Z,17.28
2022-10-18T07:02:17.346Z,17.28
2022-10-18T07:03:18.896Z,17.28
2022-10-18T07:04:21.411Z,17.29
2022-10-18T07:05:23.139Z,17.31
2022-10-18T07:06:26.013Z,17.33
2022-10-18T07:07:31.331Z,17.34
2022-10-18T07:08:34.166Z,17.36
2022-10-18T07:09:35.741Z,17.38
2022-10-18T07:10:38.824Z,17.39
2022-10-18T07:11:40.389Z,17.39
2022-10-18T07:12:43.399Z,17.39
2022-10-18T07:13:46.250Z,17.40
2022-10-18T07:14:48.753Z,17.41
2022-10-18T07:16:00.177Z,17.40
2022-10-18T07:17:02.692Z,17.41
2022-10-18T07:18:05.816Z,17.40
2022-10-18T07:19:08.445Z,17.41
2022-10-18T07:20:10.551Z,17.40
2022-10-18T07:21:14.446Z,17.40
2022-10-18T07:22:16.922Z,17.40
2022-10-18T07:23:20.901Z,17.39
2022-10-18T07:24:23.508Z,17.38
2022-10-18T07:25:28.396Z,17.38
2022-10-18T07:26:34.979Z,17.39
2022-10-18T07:27:37.419Z,17.38
2022-10-18T07:28:39.986Z,17.38
2022-10-18T07:29:42.880Z,17.39
2022-10-18T07:30:45.348Z,17.39
2022-10-18T07:31:47.990Z,17.38
2022-10-18T07:32:51.098Z,17.40
2022-10-18T07:33:53.866Z,17.39
2022-10-18T07:34:55.383Z,17.40
2022-10-18T07:36:01.872Z,17.41
2022-10-18T07:37:04.430Z,17.41
2022-10-18T07:38:05.981Z,17.41
2022-10-18T07:39:08.578Z,17.42
2022-10-18T07:40:11.766Z,17.41
2022-10-18T07:41:15.412Z,17.41
2022-10-18T07:42:16.987Z,17.43
2022-10-18T07:43:19.518Z,17.45
2022-10-18T07:44:22.272Z,17.47
2022-10-18T07:45:25.245Z,17.48
2022-10-18T07:46:28.184Z,17.49
2022-10-18T07:47:31.344Z,17.49
2022-10-18T07:48:36.794Z,17.50
2022-10-18T07:49:38.347Z,17.51
2022-10-18T07:50:40.843Z,17.52
2022-10-18T07:51:42.939Z,17.52
2022-10-18T07:52:45.973Z,17.55
2022-10-18T07:53:48.083Z,17.55
2022-10-18T07:55:59.090Z,17.56
2022-10-18T07:57:01.647Z,17.58
2022-10-18T07:58:03.400Z,17.60
2022-10-18T07:59:05.954Z,17.60
2022-10-18T08:00:09.029Z,17.61
2022-10-18T08:01:19.984Z,17.63
2022-10-18T08:02:21.521Z,17.61
2022-10-18T08:03:24.045Z,17.63
2022-10-18T08:04:25.639Z,17.63
2022-10-18T08:05:29.434Z,17.65
2022-10-18T08:06:32.297Z,17.66
2022-10-18T08:07:34.163Z,17.66
2022-10-18T08:08:38.418Z,17.67
2022-10-18T08:09:41.006Z,17.66
2022-10-18T08:10:42.549Z,17.66
2022-10-18T08:11:45.466Z,17.66
2022-10-18T08:12:47.100Z,17.66
2022-10-18T08:13:50.313Z,17.68
2022-10-18T08:14:51.857Z,17.68
2022-10-18T08:16:00.589Z,17.70
2022-10-18T08:17:04.595Z,17.70
2022-10-18T08:18:06.203Z,17.70
2022-10-18T08:19:09.132Z,17.73
2022-10-18T08:20:26.173Z,17.74
2022-10-18T08:21:32.864Z,17.77
2022-10-18T08:22:34.463Z,17.78
2022-10-18T08:23:37.711Z,17.80
2022-10-18T08:24:39.213Z,17.82
2022-10-18T08:25:41.685Z,17.84
2022-10-18T08:26:44.208Z,17.83
2022-10-18T08:27:45.779Z,17.86
2022-10-18T08:28:54.328Z,17.88
2022-10-18T08:30:12.381Z,17.89
2022-10-18T08:31:17.208Z,17.90
2022-10-18T08:32:21.051Z,17.92
2022-10-18T08:33:22.594Z,17.94
2022-10-18T08:34:25.331Z,17.96
2022-10-18T08:35:26.963Z,17.95
2022-10-18T08:36:29.471Z,17.96
2022-10-18T08:37:31.339Z,17.97
2022-10-18T08:38:34.910Z,17.98
2022-10-18T08:39:36.787Z,17.98
2022-10-18T08:40:44.496Z,17.98
2022-10-18T08:42:09.475Z,17.98
2022-10-18T08:43:23.417Z,17.96
2022-10-18T08:44:27.433Z,17.93
2022-10-18T08:45:41.931Z,17.92
2022-10-18T08:46:47.747Z,17.93
2022-10-18T08:47:53.568Z,17.92
2022-10-18T08:48:57.845Z,17.92
2022-10-18T08:50:02.062Z,17.93
2022-10-18T08:51:07.667Z,17.93
2022-10-18T08:52:16.138Z,17.93
2022-10-18T08:53:24.747Z,17.94
2022-10-18T08:54:32.068Z,17.95
2022-10-18T08:55:40.327Z,17.97
2022-10-18T08:56:47.622Z,17.97
2022-10-18T08:57:50.728Z,17.98
2022-10-18T08:58:52.249Z,17.99
2022-10-18T08:59:54.897Z,18.00
2022-10-18T09:01:09.634Z,18.01
2022-10-18T09:02:20.520Z,18.00
2022-10-18T09:03:42.234Z,17.99
2022-10-18T09:04:53.245Z,17.99
2022-10-18T09:06:01.336Z,18.00
2022-10-18T09:07:23.399Z,18.01
2022-10-18T09:08:37.375Z,18.04
2022-10-18T09:09:46.372Z,18.08
2022-10-18T09:11:02.216Z,18.10
2022-10-18T09:12:21.358Z,18.14
2022-10-18T09:13:54.859Z,18.17
2022-10-18T09:15:15.911Z,18.19
2022-10-18T09:16:21.863Z,18.22
2022-10-18T09:17:35.444Z,18.26
2022-10-18T09:18:57.264Z,18.29
2022-10-18T09:20:10.976Z,18.31
2022-10-18T09:21:20.902Z,18.31
2022-10-18T09:22:34.780Z,18.30
2022-10-18T09:23:45.194Z,18.31
2022-10-18T09:24:54.158Z,18.30
2022-10-18T09:26:06.991Z,18.28
2022-10-18T09:27:14.371Z,18.26
2022-10-18T09:28:25.657Z,18.23
2022-10-18T09:29:45.582Z,18.22
2022-10-18T09:30:59.524Z,18.20
2022-10-18T09:32:15.184Z,18.19
2022-10-18T09:33:31.645Z,18.18
2022-10-18T09:34:43.446Z,18.20
2022-10-18T09:35:52.259Z,18.20
2022-10-18T09:36:55.653Z,18.21
2022-10-18T09:38:04.623Z,18.23
2022-10-18T09:39:13.156Z,18.23
2022-10-18T09:40:19.508Z,18.25
2022-10-18T09:41:26.597Z,18.24
2022-10-18T09:42:35.029Z,18.25
2022-10-18T09:43:50.161Z,18.25
2022-10-18T09:44:56.640Z,18.29
2022-10-18T09:45:58.487Z,18.31
2022-10-18T09:47:03.714Z,18.32
2022-10-18T09:48:12.251Z,18.34
2022-10-18T09:49:20.055Z,18.34
2022-10-18T09:50:28.597Z,18.35
2022-10-18T09:51:36.037Z,18.35
2022-10-18T09:52:45.352Z,18.35
2022-10-18T09:53:59.658Z,18.36
2022-10-18T09:55:06.579Z,18.37
2022-10-18T09:56:12.655Z,18.38
2022-10-18T09:57:20.407Z,18.39
2022-10-18T09:58:26.617Z,18.38
2022-10-18T09:59:35.328Z,18.36
2022-10-18T10:00:45.494Z,18.34
2022-10-18T10:01:49.191Z,18.32
2022-10-18T10:02:51.750Z,18.30
2022-10-18T10:03:54.502Z,18.31
2022-10-18T10:04:56.310Z,18.30
2022-10-18T10:06:17.299Z,18.30
2022-10-18T10:07:24.652Z,18.30
2022-10-18T10:08:33.492Z,18.28
2022-10-18T10:09:41.046Z,18.27
2022-10-18T10:10:48.363Z,18.26
2022-10-18T10:11:51.557Z,18.26
2022-10-18T10:13:05.577Z,18.25
2022-10-18T10:15:21.279Z,18.22
2022-10-18T10:16:24.569Z,18.21
2022-10-18T10:17:31.995Z,18.20
2022-10-18T10:18:36.434Z,18.18
2022-10-18T10:19:59.727Z,18.16
2022-10-18T10:21:07.236Z,18.17
2022-10-18T10:22:13.228Z,18.17
2022-10-18T10:23:21.107Z,18.19
2022-10-18T10:24:31.237Z,18.20
2022-10-18T10:25:35.820Z,18.22
2022-10-18T10:26:38.863Z,18.22
2022-10-18T10:27:45.793Z,18.22
2022-10-18T10:28:48.778Z,18.21
2022-10-18T10:29:56.982Z,18.21
2022-10-18T10:31:18.954Z,18.20
2022-10-18T10:32:22.860Z,18.20
2022-10-18T10:33:35.313Z,18.20
2022-10-18T10:34:39.808Z,18.20
2022-10-18T10:36:00.158Z,18.21
2022-10-18T10:37:04.773Z,18.19
2022-10-18T10:38:08.180Z,18.19
2022-10-18T10:39:13.096Z,18.20
2022-10-18T10:40:21.856Z,18.19
2022-10-18T10:41:27.536Z,18.22
2022-10-18T10:42:38.099Z,18.22
2022-10-18T10:43:40.959Z,18.23
2022-10-18T10:44:54.964Z,18.24
2022-10-18T10:46:02.258Z,18.23
2022-10-18T10:47:05.564Z,18.23
2022-10-18T10:48:14.211Z,18.25
2022-10-18T10:49:39.555Z,18.26
2022-10-18T10:50:55.793Z,18.27
2022-10-18T10:52:09.128Z,18.29
2022-10-18T10:53:38.977Z,18.31
2022-10-18T10:54:51.279Z,18.35
2022-10-18T10:55:54.795Z,18.38
2022-10-18T10:57:01.882Z,18.41
2022-10-18T10:58:03.487Z,18.43
2022-10-18T10:59:15.305Z,18.45
2022-10-18T11:00:36.810Z,18.46
2022-10-18T11:01:39.321Z,18.47
2022-10-18T11:02:41.283Z,18.48
2022-10-18T11:03:47.829Z,18.48
2022-10-18T11:04:52.448Z,18.48
2022-10-18T11:05:55.304Z,18.47
2022-10-18T11:07:05.290Z,18.48
2022-10-18T11:08:10.856Z,18.50
2022-10-18T11:09:25.869Z,18.50
2022-10-18T11:10:32.640Z,18.50
2022-10-18T11:11:39.161Z,18.50
2022-10-18T11:12:46.672Z,18.50
2022-10-18T11:13:57.023Z,18.51
2022-10-18T11:15:21.546Z,18.50
2022-10-18T11:16:31.810Z,18.48
2022-10-18T11:17:40.836Z,18.50
2022-10-18T11:18:46.204Z,18.51
2022-10-18T11:20:03.600Z,18.53
2022-10-18T11:21:11.368Z,18.53
2022-10-18T11:22:18.927Z,18.55
2022-10-18T11:23:24.333Z,18.55
2022-10-18T11:24:27.291Z,18.56
2022-10-18T11:25:46.752Z,18.58
2022-10-18T11:26:59.317Z,18.58
2022-10-18T11:28:09.464Z,18.58
2022-10-18T11:29:31.828Z,18.59
2022-10-18T11:30:58.761Z,18.59
2022-10-18T11:32:10.837Z,18.60
2022-10-18T11:33:29.605Z,18.64
2022-10-18T11:34:48.888Z,18.69
2022-10-18T11:35:56.707Z,18.75
2022-10-18T11:37:27.193Z,18.83
2022-10-18T11:38:35.398Z,18.89
2022-10-18T11:39:50.829Z,18.94
2022-10-18T11:41:06.317Z,18.95
2022-10-18T11:42:16.761Z,18.93
2022-10-18T11:43:30.210Z,18.88
2022-10-18T11:44:42.419Z,18.84
2022-10-18T11:45:52.416Z,18.80
2022-10-18T11:47:05.492Z,18.76
2022-10-18T11:48:21.946Z,18.72
2022-10-18T11:49:43.804Z,18.65
2022-10-18T11:50:52.778Z,18.61
2022-10-18T11:52:08.481Z,18.57
2022-10-18T11:53:22.307Z,18.53
2022-10-18T11:54:42.234Z,18.49
2022-10-18T11:55:57.733Z,18.46
2022-10-18T11:57:17.428Z,18.44
2022-10-18T11:58:35.380Z,18.39
2022-10-18T11:59:44.311Z,18.36
2022-10-18T12:00:51.583Z,18.32
2022-10-18T12:02:03.697Z,18.31
2022-10-18T12:03:21.091Z,18.28
2022-10-18T12:04:26.009Z,18.25
2022-10-18T12:05:30.356Z,18.25
2022-10-18T12:06:37.358Z,18.23
2022-10-18T12:07:43.825Z,18.24
2022-10-18T12:08:49.842Z,18.22
2022-10-18T12:09:54.927Z,18.22
2022-10-18T12:11:06.037Z,18.22
2022-10-18T12:12:13.583Z,18.23
2022-10-18T12:13:35.917Z,18.24
2022-10-18T12:14:43.773Z,18.28
2022-10-18T12:15:46.936Z,18.31
2022-10-18T12:16:53.615Z,18.39
2022-10-18T12:18:05.188Z,18.44
2022-10-18T12:19:14.451Z,18.51
2022-10-18T12:20:23.775Z,18.59
2022-10-18T12:21:30.194Z,18.66
2022-10-18T12:22:36.388Z,18.73
2022-10-18T12:23:45.979Z,18.76
2022-10-18T12:24:48.540Z,18.82
2022-10-18T12:25:53.945Z,18.88
2022-10-18T12:27:02.085Z,18.96
2022-10-18T12:28:17.664Z,19.04
2022-10-18T12:29:27.203Z,19.11
2022-10-18T12:30:34.289Z,19.16
2022-10-18T12:31:43.452Z,19.20
2022-10-18T12:33:03.337Z,19.25
2022-10-18T12:34:26.936Z,19.27
2022-10-18T12:35:33.073Z,19.27
2022-10-18T12:36:48.735Z,19.27
2022-10-18T12:38:02.401Z,19.26
2022-10-18T12:39:11.690Z,19.23
2022-10-18T12:40:20.459Z,19.24
2022-10-18T12:41:26.590Z,19.22
2022-10-18T12:42:33.042Z,19.21
2022-10-18T12:43:37.549Z,19.20
2022-10-18T12:44:40.075Z,19.21
2022-10-18T12:45:51.490Z,19.20
2022-10-18T12:46:56.411Z,19.21
2022-10-18T12:48:00.446Z,19.21
2022-10-18T12:49:05.683Z,19.21
2022-10-18T12:50:24.374Z,19.20
2022-10-18T12:51:26.939Z,19.19
2022-10-18T12:52:30.513Z,19.20
2022-10-18T12:53:34.494Z,19.23
2022-10-18T12:54:39.715Z,19.24
2022-10-18T12:56:51.021Z,19.27
2022-10-18T12:58:06.311Z,19.27
2022-10-18T12:59:54.057Z,19.23
2022-10-18T13:00:58.132Z,19.19
2022-10-18T13:02:20.709Z,19.18
2022-10-18T13:03:47.710Z,19.16
2022-10-18T13:04:50.476Z,19.13
2022-10-18T13:05:57.724Z,19.12
2022-10-18T13:07:20.541Z,19.08
2022-10-18T13:08:41.980Z,19.06
2022-10-18T13:10:23.095Z,19.04
2022-10-18T13:11:35.819Z,19.03
2022-10-18T13:12:58.515Z,19.01
2022-10-18T13:14:44.063Z,19.01
2022-10-18T13:16:04.377Z,19.00
2022-10-18T13:17:20.337Z,18.98
2022-10-18T13:18:30.525Z,18.98
2022-10-18T13:19:40.462Z,18.97
2022-10-18T13:20:53.089Z,18.96
2022-10-18T13:22:10.600Z,18.94
2022-10-18T13:23:29.461Z,18.90
2022-10-18T13:24:38.753Z,18.89
2022-10-18T13:25:52.357Z,18.87
2022-10-18T13:27:31.559Z,18.87
2022-10-18T13:28:47.608Z,18.86
2022-10-18T13:30:11.235Z,18.85
2022-10-18T13:31:22.981Z,18.83
2022-10-18T13:32:31.218Z,18.84
2022-10-18T13:33:36.382Z,18.84
2022-10-18T13:34:38.973Z,18.83
2022-10-18T13:36:00.166Z,18.83
2022-10-18T13:37:06.059Z,18.84
2022-10-18T13:38:35.825Z,18.83
2022-10-18T13:39:40.645Z,18.82
2022-10-18T13:40:42.582Z,18.82
2022-10-18T13:42:18.238Z,18.81
2022-10-18T13:44:09.649Z,18.79
2022-10-18T13:45:44.515Z,18.77
2022-10-18T13:47:34.739Z,18.74
2022-10-18T13:48:49.451Z,18.76
2022-10-18T13:50:07.703Z,18.78
2022-10-18T13:51:28.331Z,18.80
2022-10-18T13:52:47.365Z,18.83
2022-10-18T13:54:00.242Z,18.84
2022-10-18T13:55:19.345Z,18.82
2022-10-18T13:56:45.533Z,18.79
2022-10-18T13:58:00.257Z,18.78
2022-10-18T13:59:19.507Z,18.75
2022-10-18T14:00:37.742Z,18.72
2022-10-18T14:01:52.940Z,18.70
2022-10-18T14:03:51.390Z,18.68
2022-10-18T14:05:23.024Z,18.64
2022-10-18T14:06:27.655Z,18.61
2022-10-18T14:07:29.842Z,18.61
2022-10-18T14:08:36.961Z,18.61
2022-10-18T14:09:48.893Z,18.59
2022-10-18T14:11:02.701Z,18.59
2022-10-18T14:12:14.015Z,18.57
2022-10-18T14:13:20.175Z,18.57
2022-10-18T14:14:29.907Z,18.58
2022-10-18T14:15:36.540Z,18.58
2022-10-18T14:16:44.572Z,18.60
2022-10-18T14:17:50.327Z,18.61
2022-10-18T14:18:59.063Z,18.58
2022-10-18T14:20:07.389Z,18.58
2022-10-18T14:21:19.935Z,18.56
2022-10-18T14:22:29.123Z,18.55
2022-10-18T14:23:34.601Z,18.53
2022-10-18T14:24:41.558Z,18.52
2022-10-18T14:25:43.571Z,18.54
2022-10-18T14:26:47.669Z,18.52
2022-10-18T14:27:52.274Z,18.50
2022-10-18T14:29:06.002Z,18.51
2022-10-18T14:30:13.116Z,18.51